Pagina principale
METAR-TAF:

METAR-TAF

Aeroporti :

Aeroporto militare Cameri

Novara, Italia

latitudine: 45-31N, longitudine: 008-40E, altezza: 178 m

Osservazione

Il bollettino è stato emesso 50 minuti fa, alle 12:55 UTC
Vento 3 kt da est, variando fra nord e est/sud-est
Temperature 12°C
Umidità 71%
Pressione 1011 hPa
Visibilità: 8000 m
Nubi sparse ad un'altezza di 2000 ft

METAR: LIMN 211255Z 08003KT 010V120 8000 SCT020 12/07 Q1011 RMK BKN SCT070 VIS MIN 8000 BLU

Ora: 14:45 (13:45 UTC)

Previsione

Il bollettino è stato emesso 2 ore e 45 minuti fa, alle 11:00 UTC
Previsione valida dal 21 alle 12 UTC al 21 alle 21 UTC
Vento 6 kt da nord-est
Visibilità: 5000 m
Nubi sparse ad un'altezza di 500 ft
Nuvoloso ad un'altezza di 1000 ft
foschia
Temporaneamente
dal 21 alle 12 UTC al 21 alle 21 UTC
Visibilità: 3000 m
pioggia, foschia

TAF: LIMN 211100Z 2112/2121 05006KT 5000 BR SCT005 BKN010 TEMPO 2112/2121 3000 RA BR

Osservazioni e previsioni meteorologiche di più di 4000 aeroporti (messaggi METAR e TAF).

Le stazioni disponibili sono rappresentate dai dischi gialli e rossi sulla carta.

Puntare il mouse per vedere il nome della stazione.

Clicca sopra per visualizzare le osservazioni e previsioni meteorologiche.

Per cambiare la mappa : fare clic sui pulsanti verdi con una croce nera per ingrandire, il pulsante verde con un trattino per diminuire, o sulla freccia verde per le mappe adiacenti.


METAR-TAF: